sensor_id;sensor_type;location;lat;lon;timestamp;P1;durP1;ratioP1;P2;durP2;ratioP2
45322;SDS011;31382;50.200;8.674;2022-12-18T00:01:30;26.75;;;9.65;;
45322;SDS011;31382;50.200;8.674;2022-12-18T00:06:34;24.42;;;7.68;;
45322;SDS011;31382;50.200;8.674;2022-12-18T00:11:36;20.30;;;7.03;;
45322;SDS011;31382;50.200;8.674;2022-12-18T00:16:38;27.23;;;7.53;;
45322;SDS011;31382;50.200;8.674;2022-12-18T00:21:40;31.63;;;7.70;;
45322;SDS011;31382;50.200;8.674;2022-12-18T00:26:42;21.73;;;7.78;;
45322;SDS011;31382;50.200;8.674;2022-12-18T00:31:44;28.65;;;8.77;;
45322;SDS011;31382;50.200;8.674;2022-12-18T00:36:47;24.63;;;7.78;;
45322;SDS011;31382;50.200;8.674;2022-12-18T00:41:49;22.05;;;7.82;;
45322;SDS011;31382;50.200;8.674;2022-12-18T00:47:09;22.02;;;6.88;;
45322;SDS011;31382;50.200;8.674;2022-12-18T00:52:10;26.73;;;8.30;;
45322;SDS011;31382;50.200;8.674;2022-12-18T00:57:11;39.60;;;8.07;;
45322;SDS011;31382;50.200;8.674;2022-12-18T01:02:13;33.83;;;6.68;;
45322;SDS011;31382;50.200;8.674;2022-12-18T01:07:14;33.95;;;8.73;;
45322;SDS011;31382;50.200;8.674;2022-12-18T01:12:16;31.92;;;7.32;;
45322;SDS011;31382;50.200;8.674;2022-12-18T01:17:17;34.95;;;7.88;;
45322;SDS011;31382;50.200;8.674;2022-12-18T01:22:18;46.75;;;7.68;;
45322;SDS011;31382;50.200;8.674;2022-12-18T01:27:20;38.92;;;7.25;;
45322;SDS011;31382;50.200;8.674;2022-12-18T01:32:21;41.25;;;7.25;;
45322;SDS011;31382;50.200;8.674;2022-12-18T01:37:23;39.90;;;7.45;;
45322;SDS011;31382;50.200;8.674;2022-12-18T01:42:24;23.30;;;7.57;;
45322;SDS011;31382;50.200;8.674;2022-12-18T01:47:39;28.60;;;6.97;;
45322;SDS011;31382;50.200;8.674;2022-12-18T01:52:47;27.90;;;7.45;;
45322;SDS011;31382;50.200;8.674;2022-12-18T01:57:54;21.92;;;7.07;;
45322;SDS011;31382;50.200;8.674;2022-12-18T02:02:57;34.22;;;7.95;;
45322;SDS011;31382;50.200;8.674;2022-12-18T02:08:03;23.70;;;6.55;;
45322;SDS011;31382;50.200;8.674;2022-12-18T02:13:13;31.13;;;8.80;;
45322;SDS011;31382;50.200;8.674;2022-12-18T02:18:27;74.43;;;7.78;;
45322;SDS011;31382;50.200;8.674;2022-12-18T02:23:43;39.38;;;8.10;;
45322;SDS011;31382;50.200;8.674;2022-12-18T02:28:55;51.58;;;8.18;;
45322;SDS011;31382;50.200;8.674;2022-12-18T02:34:01;30.08;;;8.63;;
45322;SDS011;31382;50.200;8.674;2022-12-18T02:39:06;25.00;;;7.93;;
45322;SDS011;31382;50.200;8.674;2022-12-18T02:44:12;25.17;;;7.20;;
45322;SDS011;31382;50.200;8.674;2022-12-18T03:00:22;41.88;;;10.05;;
45322;SDS011;31382;50.200;8.674;2022-12-18T03:10:41;24.90;;;6.95;;
45322;SDS011;31382;50.200;8.674;2022-12-18T03:15:48;32.42;;;7.18;;
45322;SDS011;31382;50.200;8.674;2022-12-18T03:20:52;26.20;;;7.82;;
45322;SDS011;31382;50.200;8.674;2022-12-18T03:25:57;25.40;;;7.75;;
45322;SDS011;31382;50.200;8.674;2022-12-18T03:31:08;30.15;;;8.05;;
45322;SDS011;31382;50.200;8.674;2022-12-18T03:36:13;24.35;;;7.22;;
45322;SDS011;31382;50.200;8.674;2022-12-18T03:41:17;27.08;;;8.27;;
45322;SDS011;31382;50.200;8.674;2022-12-18T03:46:33;31.02;;;8.10;;
45322;SDS011;31382;50.200;8.674;2022-12-18T03:51:46;25.20;;;6.85;;
45322;SDS011;31382;50.200;8.674;2022-12-18T03:56:59;28.33;;;7.88;;
45322;SDS011;31382;50.200;8.674;2022-12-18T04:02:06;31.50;;;8.82;;
45322;SDS011;31382;50.200;8.674;2022-12-18T04:07:09;29.25;;;8.93;;
45322;SDS011;31382;50.200;8.674;2022-12-18T04:12:11;23.67;;;8.52;;
45322;SDS011;31382;50.200;8.674;2022-12-18T04:17:13;36.08;;;8.75;;
45322;SDS011;31382;50.200;8.674;2022-12-18T04:22:14;22.77;;;6.97;;
45322;SDS011;31382;50.200;8.674;2022-12-18T04:27:16;26.30;;;8.13;;
45322;SDS011;31382;50.200;8.674;2022-12-18T04:32:17;27.13;;;6.78;;
45322;SDS011;31382;50.200;8.674;2022-12-18T04:37:19;30.67;;;8.57;;
45322;SDS011;31382;50.200;8.674;2022-12-18T04:42:20;30.65;;;7.47;;
45322;SDS011;31382;50.200;8.674;2022-12-18T04:47:22;21.38;;;6.85;;
45322;SDS011;31382;50.200;8.674;2022-12-18T04:52:23;20.65;;;7.47;;
45322;SDS011;31382;50.200;8.674;2022-12-18T04:57:25;23.60;;;7.38;;
45322;SDS011;31382;50.200;8.674;2022-12-18T05:02:27;21.42;;;6.30;;
45322;SDS011;31382;50.200;8.674;2022-12-18T05:07:28;13.18;;;5.35;;
45322;SDS011;31382;50.200;8.674;2022-12-18T05:12:30;20.80;;;5.82;;
45322;SDS011;31382;50.200;8.674;2022-12-18T05:17:32;18.70;;;6.03;;
45322;SDS011;31382;50.200;8.674;2022-12-18T05:22:34;20.88;;;5.97;;
45322;SDS011;31382;50.200;8.674;2022-12-18T05:27:35;20.00;;;6.18;;
45322;SDS011;31382;50.200;8.674;2022-12-18T05:32:36;18.40;;;5.90;;
45322;SDS011;31382;50.200;8.674;2022-12-18T05:37:38;18.13;;;5.60;;
45322;SDS011;31382;50.200;8.674;2022-12-18T05:42:43;16.33;;;5.57;;
45322;SDS011;31382;50.200;8.674;2022-12-18T05:47:45;22.10;;;6.75;;
45322;SDS011;31382;50.200;8.674;2022-12-18T05:52:46;25.92;;;10.65;;
45322;SDS011;31382;50.200;8.674;2022-12-18T05:57:47;24.20;;;7.90;;
45322;SDS011;31382;50.200;8.674;2022-12-18T06:02:49;22.05;;;6.70;;
45322;SDS011;31382;50.200;8.674;2022-12-18T06:07:50;18.52;;;7.00;;
45322;SDS011;31382;50.200;8.674;2022-12-18T06:12:52;23.63;;;5.72;;
45322;SDS011;31382;50.200;8.674;2022-12-18T06:17:53;19.58;;;6.20;;
45322;SDS011;31382;50.200;8.674;2022-12-18T06:22:55;33.28;;;8.90;;
45322;SDS011;31382;50.200;8.674;2022-12-18T06:27:56;23.98;;;7.72;;
45322;SDS011;31382;50.200;8.674;2022-12-18T06:32:58;23.77;;;6.35;;
45322;SDS011;31382;50.200;8.674;2022-12-18T06:38:00;20.65;;;5.72;;
45322;SDS011;31382;50.200;8.674;2022-12-18T06:43:02;18.95;;;6.90;;
45322;SDS011;31382;50.200;8.674;2022-12-18T06:48:03;24.48;;;7.15;;
45322;SDS011;31382;50.200;8.674;2022-12-18T06:53:05;20.38;;;5.78;;
45322;SDS011;31382;50.200;8.674;2022-12-18T06:58:07;26.35;;;7.72;;
45322;SDS011;31382;50.200;8.674;2022-12-18T07:03:11;21.88;;;6.53;;
45322;SDS011;31382;50.200;8.674;2022-12-18T07:08:12;24.52;;;8.70;;
45322;SDS011;31382;50.200;8.674;2022-12-18T07:13:14;21.70;;;6.80;;
45322;SDS011;31382;50.200;8.674;2022-12-18T07:18:19;24.35;;;7.05;;
45322;SDS011;31382;50.200;8.674;2022-12-18T07:23:20;20.13;;;6.90;;
45322;SDS011;31382;50.200;8.674;2022-12-18T07:28:21;26.20;;;8.82;;
45322;SDS011;31382;50.200;8.674;2022-12-18T07:33:24;25.88;;;6.38;;
45322;SDS011;31382;50.200;8.674;2022-12-18T07:38:26;26.95;;;8.60;;
45322;SDS011;31382;50.200;8.674;2022-12-18T07:43:28;22.13;;;6.95;;
45322;SDS011;31382;50.200;8.674;2022-12-18T07:48:30;22.80;;;8.65;;
45322;SDS011;31382;50.200;8.674;2022-12-18T07:53:32;29.40;;;8.50;;
45322;SDS011;31382;50.200;8.674;2022-12-18T07:58:35;25.27;;;7.85;;
45322;SDS011;31382;50.200;8.674;2022-12-18T08:03:37;22.30;;;6.78;;
45322;SDS011;31382;50.200;8.674;2022-12-18T08:08:40;27.10;;;8.60;;
45322;SDS011;31382;50.200;8.674;2022-12-18T08:13:43;25.75;;;7.82;;
45322;SDS011;31382;50.200;8.674;2022-12-18T08:18:44;23.70;;;7.85;;
45322;SDS011;31382;50.200;8.674;2022-12-18T08:23:46;35.92;;;10.50;;
45322;SDS011;31382;50.200;8.674;2022-12-18T08:28:49;25.95;;;10.40;;
45322;SDS011;31382;50.200;8.674;2022-12-18T08:33:52;27.70;;;10.18;;
45322;SDS011;31382;50.200;8.674;2022-12-18T08:38:56;32.45;;;12.50;;
45322;SDS011;31382;50.200;8.674;2022-12-18T08:43:57;31.42;;;9.70;;
45322;SDS011;31382;50.200;8.674;2022-12-18T08:49:17;33.10;;;9.73;;
45322;SDS011;31382;50.200;8.674;2022-12-18T08:54:19;30.13;;;10.35;;
45322;SDS011;31382;50.200;8.674;2022-12-18T08:59:20;26.05;;;8.93;;
45322;SDS011;31382;50.200;8.674;2022-12-18T09:04:22;27.63;;;10.75;;
45322;SDS011;31382;50.200;8.674;2022-12-18T09:09:23;30.05;;;11.05;;
45322;SDS011;31382;50.200;8.674;2022-12-18T09:14:25;31.05;;;12.23;;
45322;SDS011;31382;50.200;8.674;2022-12-18T09:19:26;39.92;;;13.73;;
45322;SDS011;31382;50.200;8.674;2022-12-18T09:24:28;36.28;;;13.45;;
45322;SDS011;31382;50.200;8.674;2022-12-18T09:29:29;34.50;;;10.85;;
45322;SDS011;31382;50.200;8.674;2022-12-18T09:34:31;33.42;;;12.00;;
45322;SDS011;31382;50.200;8.674;2022-12-18T09:39:35;32.80;;;11.32;;
45322;SDS011;31382;50.200;8.674;2022-12-18T09:44:41;39.72;;;13.27;;
45322;SDS011;31382;50.200;8.674;2022-12-18T09:49:49;38.90;;;14.15;;
45322;SDS011;31382;50.200;8.674;2022-12-18T09:55:00;36.67;;;13.52;;
45322;SDS011;31382;50.200;8.674;2022-12-18T10:05:33;38.80;;;13.60;;
45322;SDS011;31382;50.200;8.674;2022-12-18T10:10:53;42.60;;;16.23;;
45322;SDS011;31382;50.200;8.674;2022-12-18T10:16:04;35.05;;;16.83;;
45322;SDS011;31382;50.200;8.674;2022-12-18T10:21:18;41.63;;;18.10;;
45322;SDS011;31382;50.200;8.674;2022-12-18T10:26:24;46.65;;;19.50;;
45322;SDS011;31382;50.200;8.674;2022-12-18T10:31:26;44.17;;;18.15;;
45322;SDS011;31382;50.200;8.674;2022-12-18T10:36:27;50.72;;;19.65;;
45322;SDS011;31382;50.200;8.674;2022-12-18T10:41:30;43.13;;;18.60;;
45322;SDS011;31382;50.200;8.674;2022-12-18T10:46:33;42.75;;;18.58;;
45322;SDS011;31382;50.200;8.674;2022-12-18T10:51:35;47.30;;;19.23;;
45322;SDS011;31382;50.200;8.674;2022-12-18T10:56:38;46.38;;;19.77;;
45322;SDS011;31382;50.200;8.674;2022-12-18T11:01:45;44.28;;;19.40;;
45322;SDS011;31382;50.200;8.674;2022-12-18T11:06:52;51.25;;;20.67;;
45322;SDS011;31382;50.200;8.674;2022-12-18T11:12:00;46.75;;;17.70;;
45322;SDS011;31382;50.200;8.674;2022-12-18T11:17:03;47.92;;;17.83;;
45322;SDS011;31382;50.200;8.674;2022-12-18T11:22:29;49.92;;;18.25;;
45322;SDS011;31382;50.200;8.674;2022-12-18T11:27:33;47.55;;;16.13;;
45322;SDS011;31382;50.200;8.674;2022-12-18T11:32:37;52.78;;;17.73;;
45322;SDS011;31382;50.200;8.674;2022-12-18T11:37:42;50.55;;;19.85;;
45322;SDS011;31382;50.200;8.674;2022-12-18T11:42:53;50.80;;;18.42;;
45322;SDS011;31382;50.200;8.674;2022-12-18T11:48:13;51.88;;;19.25;;
45322;SDS011;31382;50.200;8.674;2022-12-18T11:53:19;44.13;;;15.95;;
45322;SDS011;31382;50.200;8.674;2022-12-18T11:58:27;49.67;;;18.10;;
45322;SDS011;31382;50.200;8.674;2022-12-18T12:09:32;47.45;;;18.80;;
45322;SDS011;31382;50.200;8.674;2022-12-18T12:14:52;46.35;;;18.67;;
45322;SDS011;31382;50.200;8.674;2022-12-18T12:25:46;47.75;;;16.52;;
45322;SDS011;31382;50.200;8.674;2022-12-18T12:41:32;49.95;;;19.25;;
45322;SDS011;31382;50.200;8.674;2022-12-18T12:46:56;40.97;;;16.88;;
45322;SDS011;31382;50.200;8.674;2022-12-18T12:52:06;54.63;;;18.17;;
45322;SDS011;31382;50.200;8.674;2022-12-18T12:57:17;51.53;;;18.45;;
45322;SDS011;31382;50.200;8.674;2022-12-18T13:07:27;46.00;;;16.17;;
45322;SDS011;31382;50.200;8.674;2022-12-18T13:38:36;49.38;;;18.70;;
45322;SDS011;31382;50.200;8.674;2022-12-18T13:43:47;53.20;;;17.75;;
45322;SDS011;31382;50.200;8.674;2022-12-18T13:48:52;46.92;;;18.50;;
45322;SDS011;31382;50.200;8.674;2022-12-18T13:53:58;43.15;;;16.73;;
45322;SDS011;31382;50.200;8.674;2022-12-18T14:04:41;53.28;;;19.40;;
45322;SDS011;31382;50.200;8.674;2022-12-18T14:09:49;46.40;;;16.75;;
45322;SDS011;31382;50.200;8.674;2022-12-18T14:15:02;47.75;;;16.70;;
45322;SDS011;31382;50.200;8.674;2022-12-18T14:20:05;43.97;;;18.38;;
45322;SDS011;31382;50.200;8.674;2022-12-18T14:25:17;45.75;;;17.20;;
45322;SDS011;31382;50.200;8.674;2022-12-18T14:35:24;44.88;;;16.70;;
45322;SDS011;31382;50.200;8.674;2022-12-18T14:40:26;45.20;;;16.83;;
45322;SDS011;31382;50.200;8.674;2022-12-18T14:45:38;46.25;;;17.73;;
45322;SDS011;31382;50.200;8.674;2022-12-18T14:50:45;49.65;;;17.10;;
45322;SDS011;31382;50.200;8.674;2022-12-18T14:56:22;48.92;;;16.77;;
45322;SDS011;31382;50.200;8.674;2022-12-18T15:06:38;49.58;;;17.75;;
45322;SDS011;31382;50.200;8.674;2022-12-18T15:16:42;53.92;;;19.58;;
45322;SDS011;31382;50.200;8.674;2022-12-18T15:21:46;50.83;;;19.75;;
45322;SDS011;31382;50.200;8.674;2022-12-18T15:26:47;57.38;;;21.05;;
45322;SDS011;31382;50.200;8.674;2022-12-18T15:31:59;59.17;;;21.00;;
45322;SDS011;31382;50.200;8.674;2022-12-18T15:37:07;53.17;;;21.63;;
45322;SDS011;31382;50.200;8.674;2022-12-18T15:42:09;47.30;;;18.73;;
45322;SDS011;31382;50.200;8.674;2022-12-18T15:47:29;50.63;;;18.45;;
45322;SDS011;31382;50.200;8.674;2022-12-18T15:52:38;51.83;;;21.13;;
45322;SDS011;31382;50.200;8.674;2022-12-18T15:57:45;55.55;;;20.10;;
45322;SDS011;31382;50.200;8.674;2022-12-18T16:02:46;55.97;;;19.98;;
45322;SDS011;31382;50.200;8.674;2022-12-18T16:07:48;48.13;;;16.17;;
45322;SDS011;31382;50.200;8.674;2022-12-18T16:12:49;45.95;;;18.60;;
45322;SDS011;31382;50.200;8.674;2022-12-18T16:17:51;53.53;;;20.95;;
45322;SDS011;31382;50.200;8.674;2022-12-18T16:22:53;53.42;;;19.15;;
45322;SDS011;31382;50.200;8.674;2022-12-18T16:27:55;52.65;;;19.63;;
45322;SDS011;31382;50.200;8.674;2022-12-18T16:32:57;52.40;;;18.88;;
45322;SDS011;31382;50.200;8.674;2022-12-18T16:37:59;68.50;;;21.83;;
45322;SDS011;31382;50.200;8.674;2022-12-18T16:43:00;58.20;;;21.50;;
45322;SDS011;31382;50.200;8.674;2022-12-18T16:48:02;55.65;;;20.85;;
45322;SDS011;31382;50.200;8.674;2022-12-18T16:53:04;65.43;;;21.67;;
45322;SDS011;31382;50.200;8.674;2022-12-18T16:58:05;66.47;;;23.50;;
45322;SDS011;31382;50.200;8.674;2022-12-18T17:03:06;68.35;;;22.80;;
45322;SDS011;31382;50.200;8.674;2022-12-18T17:08:08;59.22;;;22.42;;
45322;SDS011;31382;50.200;8.674;2022-12-18T17:13:10;63.22;;;22.00;;
45322;SDS011;31382;50.200;8.674;2022-12-18T17:18:11;60.13;;;23.58;;
45322;SDS011;31382;50.200;8.674;2022-12-18T17:23:12;62.33;;;22.00;;
45322;SDS011;31382;50.200;8.674;2022-12-18T17:28:14;61.80;;;22.92;;
45322;SDS011;31382;50.200;8.674;2022-12-18T17:33:15;81.72;;;32.25;;
45322;SDS011;31382;50.200;8.674;2022-12-18T17:38:17;75.15;;;29.23;;
45322;SDS011;31382;50.200;8.674;2022-12-18T17:43:18;76.47;;;28.85;;
45322;SDS011;31382;50.200;8.674;2022-12-18T17:48:20;76.10;;;26.33;;
45322;SDS011;31382;50.200;8.674;2022-12-18T17:53:22;59.72;;;24.92;;
45322;SDS011;31382;50.200;8.674;2022-12-18T17:58:23;66.28;;;26.20;;
45322;SDS011;31382;50.200;8.674;2022-12-18T18:03:25;54.22;;;23.90;;
45322;SDS011;31382;50.200;8.674;2022-12-18T18:08:27;59.35;;;23.33;;
45322;SDS011;31382;50.200;8.674;2022-12-18T18:13:29;54.42;;;21.45;;
45322;SDS011;31382;50.200;8.674;2022-12-18T18:18:49;59.92;;;21.55;;
45322;SDS011;31382;50.200;8.674;2022-12-18T18:23:51;55.60;;;22.92;;
45322;SDS011;31382;50.200;8.674;2022-12-18T18:28:53;49.58;;;20.45;;
45322;SDS011;31382;50.200;8.674;2022-12-18T18:33:55;53.45;;;21.23;;
45322;SDS011;31382;50.200;8.674;2022-12-18T18:38:58;60.88;;;22.83;;
45322;SDS011;31382;50.200;8.674;2022-12-18T18:44:03;60.47;;;22.23;;
45322;SDS011;31382;50.200;8.674;2022-12-18T18:49:05;61.63;;;25.80;;
45322;SDS011;31382;50.200;8.674;2022-12-18T18:54:07;61.58;;;23.83;;
45322;SDS011;31382;50.200;8.674;2022-12-18T18:59:09;58.42;;;21.38;;
45322;SDS011;31382;50.200;8.674;2022-12-18T19:04:11;64.38;;;25.00;;
45322;SDS011;31382;50.200;8.674;2022-12-18T19:09:12;65.63;;;24.65;;
45322;SDS011;31382;50.200;8.674;2022-12-18T19:14:14;52.45;;;22.23;;
45322;SDS011;31382;50.200;8.674;2022-12-18T19:19:16;52.60;;;20.55;;
45322;SDS011;31382;50.200;8.674;2022-12-18T19:24:21;53.05;;;22.17;;
45322;SDS011;31382;50.200;8.674;2022-12-18T19:29:22;52.42;;;20.63;;
45322;SDS011;31382;50.200;8.674;2022-12-18T19:34:24;53.45;;;20.02;;
45322;SDS011;31382;50.200;8.674;2022-12-18T19:39:25;55.13;;;19.95;;
45322;SDS011;31382;50.200;8.674;2022-12-18T19:44:27;54.33;;;19.45;;
45322;SDS011;31382;50.200;8.674;2022-12-18T19:49:28;51.08;;;20.17;;
45322;SDS011;31382;50.200;8.674;2022-12-18T19:54:32;54.45;;;21.15;;
45322;SDS011;31382;50.200;8.674;2022-12-18T19:59:33;56.72;;;22.55;;
45322;SDS011;31382;50.200;8.674;2022-12-18T20:04:39;52.25;;;18.77;;
45322;SDS011;31382;50.200;8.674;2022-12-18T20:09:40;50.35;;;20.23;;
45322;SDS011;31382;50.200;8.674;2022-12-18T20:14:42;53.58;;;19.38;;
45322;SDS011;31382;50.200;8.674;2022-12-18T20:19:44;51.80;;;20.73;;
45322;SDS011;31382;50.200;8.674;2022-12-18T20:24:45;47.72;;;20.10;;
45322;SDS011;31382;50.200;8.674;2022-12-18T20:29:49;46.10;;;16.63;;
45322;SDS011;31382;50.200;8.674;2022-12-18T20:34:51;49.30;;;18.83;;
45322;SDS011;31382;50.200;8.674;2022-12-18T20:39:53;48.58;;;19.38;;
45322;SDS011;31382;50.200;8.674;2022-12-18T20:44:55;45.40;;;17.95;;
45322;SDS011;31382;50.200;8.674;2022-12-18T20:49:56;43.88;;;17.85;;
45322;SDS011;31382;50.200;8.674;2022-12-18T20:54:58;37.83;;;16.15;;
45322;SDS011;31382;50.200;8.674;2022-12-18T21:00:01;51.28;;;19.45;;
45322;SDS011;31382;50.200;8.674;2022-12-18T21:05:02;49.75;;;18.48;;
45322;SDS011;31382;50.200;8.674;2022-12-18T21:10:04;51.72;;;18.17;;
45322;SDS011;31382;50.200;8.674;2022-12-18T21:15:07;46.58;;;17.65;;
45322;SDS011;31382;50.200;8.674;2022-12-18T21:20:09;36.80;;;15.50;;
45322;SDS011;31382;50.200;8.674;2022-12-18T21:30:18;42.85;;;16.70;;
45322;SDS011;31382;50.200;8.674;2022-12-18T21:35:20;39.95;;;17.10;;
45322;SDS011;31382;50.200;8.674;2022-12-18T21:40:23;38.58;;;16.20;;
45322;SDS011;31382;50.200;8.674;2022-12-18T21:45:25;50.83;;;19.67;;
45322;SDS011;31382;50.200;8.674;2022-12-18T21:50:26;52.88;;;20.35;;
45322;SDS011;31382;50.200;8.674;2022-12-18T21:55:27;45.33;;;17.70;;
45322;SDS011;31382;50.200;8.674;2022-12-18T22:00:29;48.80;;;19.75;;
45322;SDS011;31382;50.200;8.674;2022-12-18T22:05:30;49.35;;;19.67;;
45322;SDS011;31382;50.200;8.674;2022-12-18T22:10:31;43.08;;;18.35;;
45322;SDS011;31382;50.200;8.674;2022-12-18T22:15:33;41.90;;;17.92;;
45322;SDS011;31382;50.200;8.674;2022-12-18T22:20:34;43.50;;;17.70;;
45322;SDS011;31382;50.200;8.674;2022-12-18T22:25:36;48.75;;;20.00;;
45322;SDS011;31382;50.200;8.674;2022-12-18T22:30:40;48.00;;;19.70;;
45322;SDS011;31382;50.200;8.674;2022-12-18T22:35:41;46.60;;;17.75;;
45322;SDS011;31382;50.200;8.674;2022-12-18T22:40:43;43.10;;;17.17;;
45322;SDS011;31382;50.200;8.674;2022-12-18T22:45:44;45.03;;;17.73;;
45322;SDS011;31382;50.200;8.674;2022-12-18T22:50:47;50.28;;;19.15;;
45322;SDS011;31382;50.200;8.674;2022-12-18T22:55:51;49.92;;;18.65;;
45322;SDS011;31382;50.200;8.674;2022-12-18T23:00:52;46.08;;;17.83;;
45322;SDS011;31382;50.200;8.674;2022-12-18T23:06:00;43.67;;;16.60;;
45322;SDS011;31382;50.200;8.674;2022-12-18T23:11:03;45.58;;;18.63;;
45322;SDS011;31382;50.200;8.674;2022-12-18T23:16:06;45.60;;;18.90;;
45322;SDS011;31382;50.200;8.674;2022-12-18T23:21:10;47.67;;;17.70;;
45322;SDS011;31382;50.200;8.674;2022-12-18T23:26:18;49.30;;;19.25;;
45322;SDS011;31382;50.200;8.674;2022-12-18T23:36:24;41.70;;;17.15;;
45322;SDS011;31382;50.200;8.674;2022-12-18T23:41:28;45.70;;;16.77;;
45322;SDS011;31382;50.200;8.674;2022-12-18T23:46:32;47.60;;;18.80;;
45322;SDS011;31382;50.200;8.674;2022-12-18T23:51:36;47.60;;;17.63;;
45322;SDS011;31382;50.200;8.674;2022-12-18T23:56:39;44.60;;;17.65;;
